sensor_id;sensor_type;location;lat;lon;timestamp;temperature;humidity
3727;DHT22;1879;45.876;12.300;2022-12-08T00:02:05;4.40;99.90
3727;DHT22;1879;45.876;12.300;2022-12-08T00:04:32;4.40;99.90
3727;DHT22;1879;45.876;12.300;2022-12-08T00:07:19;4.40;99.90
3727;DHT22;1879;45.876;12.300;2022-12-08T00:10:04;4.40;99.90
3727;DHT22;1879;45.876;12.300;2022-12-08T00:12:34;4.40;99.90
3727;DHT22;1879;45.876;12.300;2022-12-08T00:15:01;4.30;99.90
3727;DHT22;1879;45.876;12.300;2022-12-08T00:17:29;4.30;99.90
3727;DHT22;1879;45.876;12.300;2022-12-08T00:19:56;4.30;99.90
3727;DHT22;1879;45.876;12.300;2022-12-08T00:22:23;4.30;99.90
3727;DHT22;1879;45.876;12.300;2022-12-08T00:24:50;4.20;99.90
3727;DHT22;1879;45.876;12.300;2022-12-08T00:27:17;4.30;99.90
3727;DHT22;1879;45.876;12.300;2022-12-08T00:29:44;4.20;99.90
3727;DHT22;1879;45.876;12.300;2022-12-08T00:32:11;4.20;99.90
3727;DHT22;1879;45.876;12.300;2022-12-08T00:34:40;4.20;99.90
3727;DHT22;1879;45.876;12.300;2022-12-08T00:37:07;4.20;99.90
3727;DHT22;1879;45.876;12.300;2022-12-08T00:39:34;4.20;99.90
3727;DHT22;1879;45.876;12.300;2022-12-08T00:42:01;4.10;99.90
3727;DHT22;1879;45.876;12.300;2022-12-08T00:44:40;4.20;99.90
3727;DHT22;1879;45.876;12.300;2022-12-08T00:47:08;4.20;99.90
3727;DHT22;1879;45.876;12.300;2022-12-08T00:49:35;4.20;99.90
3727;DHT22;1879;45.876;12.300;2022-12-08T00:52:03;4.20;99.90
3727;DHT22;1879;45.876;12.300;2022-12-08T00:54:30;4.20;99.90
3727;DHT22;1879;45.876;12.300;2022-12-08T00:56:57;4.10;99.90
3727;DHT22;1879;45.876;12.300;2022-12-08T00:59:24;4.10;99.90
3727;DHT22;1879;45.876;12.300;2022-12-08T01:01:51;4.20;99.90
3727;DHT22;1879;45.876;12.300;2022-12-08T01:04:19;4.20;99.90
3727;DHT22;1879;45.876;12.300;2022-12-08T01:06:47;4.10;99.90
3727;DHT22;1879;45.876;12.300;2022-12-08T01:09:18;4.20;99.90
3727;DHT22;1879;45.876;12.300;2022-12-08T01:11:47;4.10;99.90
3727;DHT22;1879;45.876;12.300;2022-12-08T01:14:15;4.10;99.90
3727;DHT22;1879;45.876;12.300;2022-12-08T01:16:42;4.00;99.90
3727;DHT22;1879;45.876;12.300;2022-12-08T01:19:10;4.00;99.90
3727;DHT22;1879;45.876;12.300;2022-12-08T01:21:39;3.90;99.90
3727;DHT22;1879;45.876;12.300;2022-12-08T01:24:10;3.90;99.90
3727;DHT22;1879;45.876;12.300;2022-12-08T01:26:38;3.80;99.90
3727;DHT22;1879;45.876;12.300;2022-12-08T01:29:05;4.00;99.90
3727;DHT22;1879;45.876;12.300;2022-12-08T01:31:32;4.20;99.90
3727;DHT22;1879;45.876;12.300;2022-12-08T01:33:59;4.00;99.90
3727;DHT22;1879;45.876;12.300;2022-12-08T01:36:27;4.00;99.90
3727;DHT22;1879;45.876;12.300;2022-12-08T01:38:57;4.00;99.90
3727;DHT22;1879;45.876;12.300;2022-12-08T01:41:26;4.00;99.90
3727;DHT22;1879;45.876;12.300;2022-12-08T01:43:58;3.90;99.90
3727;DHT22;1879;45.876;12.300;2022-12-08T01:46:26;3.90;99.90
3727;DHT22;1879;45.876;12.300;2022-12-08T01:48:57;3.90;99.90
3727;DHT22;1879;45.876;12.300;2022-12-08T01:51:26;4.00;99.90
3727;DHT22;1879;45.876;12.300;2022-12-08T01:53:54;3.90;99.90
3727;DHT22;1879;45.876;12.300;2022-12-08T01:56:24;3.90;99.90
3727;DHT22;1879;45.876;12.300;2022-12-08T01:58:55;3.90;99.90
3727;DHT22;1879;45.876;12.300;2022-12-08T02:01:22;4.00;99.90
3727;DHT22;1879;45.876;12.300;2022-12-08T02:03:54;4.00;99.90
3727;DHT22;1879;45.876;12.300;2022-12-08T02:06:23;4.10;99.90
3727;DHT22;1879;45.876;12.300;2022-12-08T02:08:51;4.10;99.90
3727;DHT22;1879;45.876;12.300;2022-12-08T02:11:19;4.20;99.90
3727;DHT22;1879;45.876;12.300;2022-12-08T02:13:47;4.10;99.90
3727;DHT22;1879;45.876;12.300;2022-12-08T02:16:25;4.10;99.90
3727;DHT22;1879;45.876;12.300;2022-12-08T02:19:01;4.10;99.90
3727;DHT22;1879;45.876;12.300;2022-12-08T02:21:36;4.20;99.90
3727;DHT22;1879;45.876;12.300;2022-12-08T02:24:10;4.10;99.90
3727;DHT22;1879;45.876;12.300;2022-12-08T02:30:17;4.20;99.90
3727;DHT22;1879;45.876;12.300;2022-12-08T02:35:56;4.30;99.90
3727;DHT22;1879;45.876;12.300;2022-12-08T02:38:33;4.40;99.90
3727;DHT22;1879;45.876;12.300;2022-12-08T02:41:08;4.40;99.90
3727;DHT22;1879;45.876;12.300;2022-12-08T02:43:41;4.40;99.90
3727;DHT22;1879;45.876;12.300;2022-12-08T02:46:12;4.40;99.90
3727;DHT22;1879;45.876;12.300;2022-12-08T02:48:41;4.50;99.90
3727;DHT22;1879;45.876;12.300;2022-12-08T02:51:12;4.60;99.90
3727;DHT22;1879;45.876;12.300;2022-12-08T02:53:39;4.60;99.90
3727;DHT22;1879;45.876;12.300;2022-12-08T02:56:14;4.60;99.90
3727;DHT22;1879;45.876;12.300;2022-12-08T02:59:05;4.60;99.90
3727;DHT22;1879;45.876;12.300;2022-12-08T03:01:55;4.60;99.90
3727;DHT22;1879;45.876;12.300;2022-12-08T03:04:34;4.60;99.90
3727;DHT22;1879;45.876;12.300;2022-12-08T03:07:07;4.60;99.90
3727;DHT22;1879;45.876;12.300;2022-12-08T03:09:40;4.60;99.90
3727;DHT22;1879;45.876;12.300;2022-12-08T03:12:13;4.60;99.90
3727;DHT22;1879;45.876;12.300;2022-12-08T03:14:45;4.70;99.90
3727;DHT22;1879;45.876;12.300;2022-12-08T03:17:13;4.90;99.90
3727;DHT22;1879;45.876;12.300;2022-12-08T03:19:43;4.90;99.90
3727;DHT22;1879;45.876;12.300;2022-12-08T03:22:15;4.90;99.90
3727;DHT22;1879;45.876;12.300;2022-12-08T03:24:44;4.90;99.90
3727;DHT22;1879;45.876;12.300;2022-12-08T03:27:13;4.80;99.90
3727;DHT22;1879;45.876;12.300;2022-12-08T03:29:41;4.80;99.90
3727;DHT22;1879;45.876;12.300;2022-12-08T03:32:15;4.70;99.90
3727;DHT22;1879;45.876;12.300;2022-12-08T03:34:46;4.50;99.90
3727;DHT22;1879;45.876;12.300;2022-12-08T03:37:16;4.50;99.90
3727;DHT22;1879;45.876;12.300;2022-12-08T03:39:43;4.40;99.90
3727;DHT22;1879;45.876;12.300;2022-12-08T03:42:10;4.40;99.90
3727;DHT22;1879;45.876;12.300;2022-12-08T03:44:36;4.60;99.90
3727;DHT22;1879;45.876;12.300;2022-12-08T03:47:04;4.70;99.90
3727;DHT22;1879;45.876;12.300;2022-12-08T03:49:33;4.90;99.90
3727;DHT22;1879;45.876;12.300;2022-12-08T03:52:00;5.00;99.90
3727;DHT22;1879;45.876;12.300;2022-12-08T03:54:29;5.00;99.90
3727;DHT22;1879;45.876;12.300;2022-12-08T03:56:55;5.00;99.90
3727;DHT22;1879;45.876;12.300;2022-12-08T03:59:22;4.80;99.90
3727;DHT22;1879;45.876;12.300;2022-12-08T04:01:49;4.60;99.90
3727;DHT22;1879;45.876;12.300;2022-12-08T04:04:16;4.60;99.90
3727;DHT22;1879;45.876;12.300;2022-12-08T04:06:43;4.40;99.90
3727;DHT22;1879;45.876;12.300;2022-12-08T04:09:10;4.30;99.90
3727;DHT22;1879;45.876;12.300;2022-12-08T04:11:39;4.40;99.90
3727;DHT22;1879;45.876;12.300;2022-12-08T04:14:06;4.40;99.90
3727;DHT22;1879;45.876;12.300;2022-12-08T04:16:33;4.40;99.90
3727;DHT22;1879;45.876;12.300;2022-12-08T04:19:00;4.40;99.90
3727;DHT22;1879;45.876;12.300;2022-12-08T04:21:27;4.50;99.90
3727;DHT22;1879;45.876;12.300;2022-12-08T04:23:54;4.40;99.90
3727;DHT22;1879;45.876;12.300;2022-12-08T04:26:21;4.30;99.90
3727;DHT22;1879;45.876;12.300;2022-12-08T04:28:49;4.40;99.90
3727;DHT22;1879;45.876;12.300;2022-12-08T04:31:16;4.30;99.90
3727;DHT22;1879;45.876;12.300;2022-12-08T04:33:44;4.30;99.90
3727;DHT22;1879;45.876;12.300;2022-12-08T04:36:11;4.30;99.90
3727;DHT22;1879;45.876;12.300;2022-12-08T04:38:38;4.30;99.90
3727;DHT22;1879;45.876;12.300;2022-12-08T04:41:05;4.30;99.90
3727;DHT22;1879;45.876;12.300;2022-12-08T04:43:32;4.30;99.90
3727;DHT22;1879;45.876;12.300;2022-12-08T04:46:00;4.20;99.90
3727;DHT22;1879;45.876;12.300;2022-12-08T04:48:27;4.10;99.90
3727;DHT22;1879;45.876;12.300;2022-12-08T04:50:54;4.00;99.90
3727;DHT22;1879;45.876;12.300;2022-12-08T04:53:21;4.00;99.90
3727;DHT22;1879;45.876;12.300;2022-12-08T04:55:48;4.10;99.90
3727;DHT22;1879;45.876;12.300;2022-12-08T04:58:17;4.10;99.90
3727;DHT22;1879;45.876;12.300;2022-12-08T05:00:44;4.20;99.90
3727;DHT22;1879;45.876;12.300;2022-12-08T05:03:14;4.20;99.90
3727;DHT22;1879;45.876;12.300;2022-12-08T05:05:42;4.20;99.90
3727;DHT22;1879;45.876;12.300;2022-12-08T05:08:10;4.10;99.90
3727;DHT22;1879;45.876;12.300;2022-12-08T05:10:37;4.00;99.90
3727;DHT22;1879;45.876;12.300;2022-12-08T05:13:04;4.00;99.90
3727;DHT22;1879;45.876;12.300;2022-12-08T05:15:31;3.90;99.90
3727;DHT22;1879;45.876;12.300;2022-12-08T05:17:58;3.90;99.90
3727;DHT22;1879;45.876;12.300;2022-12-08T05:20:26;3.90;99.90
3727;DHT22;1879;45.876;12.300;2022-12-08T05:22:53;4.00;99.90
3727;DHT22;1879;45.876;12.300;2022-12-08T05:25:20;4.00;99.90
3727;DHT22;1879;45.876;12.300;2022-12-08T05:27:47;3.90;99.90
3727;DHT22;1879;45.876;12.300;2022-12-08T05:30:14;3.80;99.90
3727;DHT22;1879;45.876;12.300;2022-12-08T05:32:41;3.80;99.90
3727;DHT22;1879;45.876;12.300;2022-12-08T05:35:08;3.90;99.90
3727;DHT22;1879;45.876;12.300;2022-12-08T05:37:37;4.00;99.90
3727;DHT22;1879;45.876;12.300;2022-12-08T05:40:05;4.10;99.90
3727;DHT22;1879;45.876;12.300;2022-12-08T05:42:32;4.10;99.90
3727;DHT22;1879;45.876;12.300;2022-12-08T05:44:59;4.20;99.90
3727;DHT22;1879;45.876;12.300;2022-12-08T05:47:26;4.20;99.90
3727;DHT22;1879;45.876;12.300;2022-12-08T05:49:53;4.10;99.90
3727;DHT22;1879;45.876;12.300;2022-12-08T05:52:20;4.10;99.90
3727;DHT22;1879;45.876;12.300;2022-12-08T05:54:49;4.10;99.90
3727;DHT22;1879;45.876;12.300;2022-12-08T05:57:16;4.10;99.90
3727;DHT22;1879;45.876;12.300;2022-12-08T05:59:42;4.10;99.90
3727;DHT22;1879;45.876;12.300;2022-12-08T06:02:09;4.00;99.90
3727;DHT22;1879;45.876;12.300;2022-12-08T06:04:36;4.00;99.90
3727;DHT22;1879;45.876;12.300;2022-12-08T06:07:03;4.00;99.90
3727;DHT22;1879;45.876;12.300;2022-12-08T06:09:30;4.00;99.90
3727;DHT22;1879;45.876;12.300;2022-12-08T06:12:00;4.10;99.90
3727;DHT22;1879;45.876;12.300;2022-12-08T06:14:30;4.10;99.90
3727;DHT22;1879;45.876;12.300;2022-12-08T06:16:57;4.10;99.90
3727;DHT22;1879;45.876;12.300;2022-12-08T06:19:24;4.10;99.90
3727;DHT22;1879;45.876;12.300;2022-12-08T06:21:51;4.10;99.90
3727;DHT22;1879;45.876;12.300;2022-12-08T06:24:18;4.00;99.90
3727;DHT22;1879;45.876;12.300;2022-12-08T06:26:45;4.00;99.90
3727;DHT22;1879;45.876;12.300;2022-12-08T06:29:13;4.10;99.90
3727;DHT22;1879;45.876;12.300;2022-12-08T06:31:40;4.10;99.90
3727;DHT22;1879;45.876;12.300;2022-12-08T06:34:07;4.10;99.90
3727;DHT22;1879;45.876;12.300;2022-12-08T06:36:34;4.00;99.90
3727;DHT22;1879;45.876;12.300;2022-12-08T06:39:01;4.00;99.90
3727;DHT22;1879;45.876;12.300;2022-12-08T06:41:29;3.90;99.90
3727;DHT22;1879;45.876;12.300;2022-12-08T06:43:56;3.90;99.90
3727;DHT22;1879;45.876;12.300;2022-12-08T06:46:24;3.90;99.90
3727;DHT22;1879;45.876;12.300;2022-12-08T06:48:51;4.00;99.90
3727;DHT22;1879;45.876;12.300;2022-12-08T06:51:19;4.00;99.90
3727;DHT22;1879;45.876;12.300;2022-12-08T06:53:48;4.00;99.90
3727;DHT22;1879;45.876;12.300;2022-12-08T06:56:16;4.00;99.90
3727;DHT22;1879;45.876;12.300;2022-12-08T06:58:44;3.90;99.90
3727;DHT22;1879;45.876;12.300;2022-12-08T07:01:12;3.90;99.90
3727;DHT22;1879;45.876;12.300;2022-12-08T07:03:41;3.90;99.90
3727;DHT22;1879;45.876;12.300;2022-12-08T07:06:13;4.00;99.90
3727;DHT22;1879;45.876;12.300;2022-12-08T07:08:41;4.00;99.90
3727;DHT22;1879;45.876;12.300;2022-12-08T07:11:09;4.10;99.90
3727;DHT22;1879;45.876;12.300;2022-12-08T07:13:36;4.20;99.90
3727;DHT22;1879;45.876;12.300;2022-12-08T07:16:05;4.20;99.90
3727;DHT22;1879;45.876;12.300;2022-12-08T07:18:32;4.20;99.90
3727;DHT22;1879;45.876;12.300;2022-12-08T07:21:03;4.30;99.90
3727;DHT22;1879;45.876;12.300;2022-12-08T07:23:30;4.40;99.90
3727;DHT22;1879;45.876;12.300;2022-12-08T07:25:59;4.40;99.90
3727;DHT22;1879;45.876;12.300;2022-12-08T07:28:28;4.40;99.90
3727;DHT22;1879;45.876;12.300;2022-12-08T07:30:55;4.30;99.90
3727;DHT22;1879;45.876;12.300;2022-12-08T07:33:22;4.30;99.90
3727;DHT22;1879;45.876;12.300;2022-12-08T07:35:53;4.30;99.90
3727;DHT22;1879;45.876;12.300;2022-12-08T07:38:22;4.20;99.90
3727;DHT22;1879;45.876;12.300;2022-12-08T07:40:49;4.20;99.90
3727;DHT22;1879;45.876;12.300;2022-12-08T07:43:16;4.20;99.90
3727;DHT22;1879;45.876;12.300;2022-12-08T07:45:43;4.20;99.90
3727;DHT22;1879;45.876;12.300;2022-12-08T07:48:11;4.20;99.90
3727;DHT22;1879;45.876;12.300;2022-12-08T07:50:40;4.20;99.90
3727;DHT22;1879;45.876;12.300;2022-12-08T07:53:08;4.20;99.90
3727;DHT22;1879;45.876;12.300;2022-12-08T07:55:40;4.30;99.90
3727;DHT22;1879;45.876;12.300;2022-12-08T07:58:07;4.40;99.90
3727;DHT22;1879;45.876;12.300;2022-12-08T08:00:34;4.50;99.90
3727;DHT22;1879;45.876;12.300;2022-12-08T08:03:01;4.70;99.90
3727;DHT22;1879;45.876;12.300;2022-12-08T08:05:28;4.80;99.90
3727;DHT22;1879;45.876;12.300;2022-12-08T08:07:58;4.90;99.90
3727;DHT22;1879;45.876;12.300;2022-12-08T08:10:25;5.00;99.90
3727;DHT22;1879;45.876;12.300;2022-12-08T08:12:57;5.10;99.90
3727;DHT22;1879;45.876;12.300;2022-12-08T08:15:26;5.20;99.90
3727;DHT22;1879;45.876;12.300;2022-12-08T08:17:53;5.30;99.90
3727;DHT22;1879;45.876;12.300;2022-12-08T08:20:20;5.40;99.90
3727;DHT22;1879;45.876;12.300;2022-12-08T08:22:49;5.60;99.90
3727;DHT22;1879;45.876;12.300;2022-12-08T08:25:17;5.70;99.90
3727;DHT22;1879;45.876;12.300;2022-12-08T08:27:45;5.80;99.90
3727;DHT22;1879;45.876;12.300;2022-12-08T08:30:14;5.90;99.90
3727;DHT22;1879;45.876;12.300;2022-12-08T08:32:41;5.90;99.90
3727;DHT22;1879;45.876;12.300;2022-12-08T08:35:09;6.00;99.90
3727;DHT22;1879;45.876;12.300;2022-12-08T08:37:36;6.10;99.90
3727;DHT22;1879;45.876;12.300;2022-12-08T08:40:04;6.20;99.90
3727;DHT22;1879;45.876;12.300;2022-12-08T08:42:31;6.20;99.90
3727;DHT22;1879;45.876;12.300;2022-12-08T08:44:58;6.20;99.90
3727;DHT22;1879;45.876;12.300;2022-12-08T08:47:26;6.30;99.90
3727;DHT22;1879;45.876;12.300;2022-12-08T08:49:53;6.40;99.90
3727;DHT22;1879;45.876;12.300;2022-12-08T08:52:20;6.50;99.90
3727;DHT22;1879;45.876;12.300;2022-12-08T08:54:47;6.50;99.90
3727;DHT22;1879;45.876;12.300;2022-12-08T08:57:14;6.50;99.90
3727;DHT22;1879;45.876;12.300;2022-12-08T08:59:41;6.60;99.90
3727;DHT22;1879;45.876;12.300;2022-12-08T09:02:14;6.70;99.90
3727;DHT22;1879;45.876;12.300;2022-12-08T09:04:44;6.80;99.90
3727;DHT22;1879;45.876;12.300;2022-12-08T09:07:12;6.80;99.90
3727;DHT22;1879;45.876;12.300;2022-12-08T09:09:39;6.90;99.90
3727;DHT22;1879;45.876;12.300;2022-12-08T09:12:07;7.00;99.90
3727;DHT22;1879;45.876;12.300;2022-12-08T09:14:34;7.10;99.90
3727;DHT22;1879;45.876;12.300;2022-12-08T09:17:01;7.20;99.90
3727;DHT22;1879;45.876;12.300;2022-12-08T09:19:28;7.30;99.90
3727;DHT22;1879;45.876;12.300;2022-12-08T09:21:56;7.40;99.90
3727;DHT22;1879;45.876;12.300;2022-12-08T09:24:23;7.60;99.90
3727;DHT22;1879;45.876;12.300;2022-12-08T09:26:50;7.70;99.90
3727;DHT22;1879;45.876;12.300;2022-12-08T09:29:17;7.80;99.90
3727;DHT22;1879;45.876;12.300;2022-12-08T09:31:44;7.90;99.90
3727;DHT22;1879;45.876;12.300;2022-12-08T09:34:12;8.00;99.90
3727;DHT22;1879;45.876;12.300;2022-12-08T09:36:39;8.20;99.90
3727;DHT22;1879;45.876;12.300;2022-12-08T09:39:07;8.30;99.90
3727;DHT22;1879;45.876;12.300;2022-12-08T09:41:36;8.40;99.90
3727;DHT22;1879;45.876;12.300;2022-12-08T09:47:14;8.60;99.50
3727;DHT22;1879;45.876;12.300;2022-12-08T09:49:48;8.70;99.20
3727;DHT22;1879;45.876;12.300;2022-12-08T09:52:20;8.80;99.70
3727;DHT22;1879;45.876;12.300;2022-12-08T09:54:49;8.90;99.90
3727;DHT22;1879;45.876;12.300;2022-12-08T09:57:19;9.00;99.40
3727;DHT22;1879;45.876;12.300;2022-12-08T09:59:50;9.00;98.90
3727;DHT22;1879;45.876;12.300;2022-12-08T10:02:21;9.10;98.70
3727;DHT22;1879;45.876;12.300;2022-12-08T10:04:49;9.20;98.50
3727;DHT22;1879;45.876;12.300;2022-12-08T10:07:20;9.30;98.60
3727;DHT22;1879;45.876;12.300;2022-12-08T10:09:57;9.40;98.20
3727;DHT22;1879;45.876;12.300;2022-12-08T10:12:27;9.40;98.70
3727;DHT22;1879;45.876;12.300;2022-12-08T10:15:02;9.50;98.20
3727;DHT22;1879;45.876;12.300;2022-12-08T10:17:35;9.50;97.50
3727;DHT22;1879;45.876;12.300;2022-12-08T10:20:11;9.60;97.30
3727;DHT22;1879;45.876;12.300;2022-12-08T10:22:38;9.70;97.30
3727;DHT22;1879;45.876;12.300;2022-12-08T10:25:14;9.80;96.20
3727;DHT22;1879;45.876;12.300;2022-12-08T10:27:45;9.90;95.70
3727;DHT22;1879;45.876;12.300;2022-12-08T10:30:15;9.90;95.20
3727;DHT22;1879;45.876;12.300;2022-12-08T10:32:44;10.00;95.20
3727;DHT22;1879;45.876;12.300;2022-12-08T10:35:13;10.00;94.60
3727;DHT22;1879;45.876;12.300;2022-12-08T10:37:41;10.00;93.30
3727;DHT22;1879;45.876;12.300;2022-12-08T10:40:21;10.10;93.50
3727;DHT22;1879;45.876;12.300;2022-12-08T10:42:51;10.20;92.80
3727;DHT22;1879;45.876;12.300;2022-12-08T10:45:24;10.30;93.20
3727;DHT22;1879;45.876;12.300;2022-12-08T10:47:57;10.30;92.40
3727;DHT22;1879;45.876;12.300;2022-12-08T10:50:29;10.40;92.50
3727;DHT22;1879;45.876;12.300;2022-12-08T10:52:59;10.40;92.70
3727;DHT22;1879;45.876;12.300;2022-12-08T10:55:28;10.50;92.70
3727;DHT22;1879;45.876;12.300;2022-12-08T10:58:04;10.50;91.90
3727;DHT22;1879;45.876;12.300;2022-12-08T11:00:31;10.60;92.10
3727;DHT22;1879;45.876;12.300;2022-12-08T11:03:00;10.70;91.80
3727;DHT22;1879;45.876;12.300;2022-12-08T11:05:30;10.90;90.30
3727;DHT22;1879;45.876;12.300;2022-12-08T11:07:58;10.90;90.10
3727;DHT22;1879;45.876;12.300;2022-12-08T11:10:33;11.10;89.80
3727;DHT22;1879;45.876;12.300;2022-12-08T11:13:03;11.60;90.00
3727;DHT22;1879;45.876;12.300;2022-12-08T11:15:34;12.10;88.00
3727;DHT22;1879;45.876;12.300;2022-12-08T11:18:08;12.40;91.30
3727;DHT22;1879;45.876;12.300;2022-12-08T11:20:40;13.10;86.60
3727;DHT22;1879;45.876;12.300;2022-12-08T11:23:19;13.00;84.10
3727;DHT22;1879;45.876;12.300;2022-12-08T11:25:49;12.90;84.00
3727;DHT22;1879;45.876;12.300;2022-12-08T11:28:21;12.80;84.40
3727;DHT22;1879;45.876;12.300;2022-12-08T11:30:53;12.60;82.60
3727;DHT22;1879;45.876;12.300;2022-12-08T11:33:23;13.60;83.40
3727;DHT22;1879;45.876;12.300;2022-12-08T11:35:55;14.70;81.10
3727;DHT22;1879;45.876;12.300;2022-12-08T11:38:24;16.20;77.50
3727;DHT22;1879;45.876;12.300;2022-12-08T11:40:56;17.90;71.70
3727;DHT22;1879;45.876;12.300;2022-12-08T11:43:34;17.70;63.90
3727;DHT22;1879;45.876;12.300;2022-12-08T11:46:08;16.20;63.80
3727;DHT22;1879;45.876;12.300;2022-12-08T11:48:41;14.70;65.30
3727;DHT22;1879;45.876;12.300;2022-12-08T11:51:12;13.60;66.80
3727;DHT22;1879;45.876;12.300;2022-12-08T11:53:47;12.90;69.00
3727;DHT22;1879;45.876;12.300;2022-12-08T11:56:22;12.70;70.80
3727;DHT22;1879;45.876;12.300;2022-12-08T11:58:53;12.50;71.40
3727;DHT22;1879;45.876;12.300;2022-12-08T12:01:23;12.90;71.10
3727;DHT22;1879;45.876;12.300;2022-12-08T12:03:59;14.60;69.00
3727;DHT22;1879;45.876;12.300;2022-12-08T12:06:54;15.20;63.80
3727;DHT22;1879;45.876;12.300;2022-12-08T12:09:33;14.00;63.20
3727;DHT22;1879;45.876;12.300;2022-12-08T12:12:10;13.20;64.10
3727;DHT22;1879;45.876;12.300;2022-12-08T12:17:45;15.20;65.00
3727;DHT22;1879;45.876;12.300;2022-12-08T12:20:17;16.20;62.80
3727;DHT22;1879;45.876;12.300;2022-12-08T12:22:48;18.60;62.40
3727;DHT22;1879;45.876;12.300;2022-12-08T12:25:19;20.50;61.20
3727;DHT22;1879;45.876;12.300;2022-12-08T12:30:21;23.40;47.40
3727;DHT22;1879;45.876;12.300;2022-12-08T12:32:53;23.90;44.70
3727;DHT22;1879;45.876;12.300;2022-12-08T12:35:28;24.40;43.00
3727;DHT22;1879;45.876;12.300;2022-12-08T12:37:59;24.00;42.00
3727;DHT22;1879;45.876;12.300;2022-12-08T12:40:33;22.80;42.00
3727;DHT22;1879;45.876;12.300;2022-12-08T12:43:28;20.90;43.30
3727;DHT22;1879;45.876;12.300;2022-12-08T12:52:41;16.30;49.60
3727;DHT22;1879;45.876;12.300;2022-12-08T12:55:23;15.50;49.60
3727;DHT22;1879;45.876;12.300;2022-12-08T12:57:52;15.00;50.50
3727;DHT22;1879;45.876;12.300;2022-12-08T13:00:23;14.70;51.50
3727;DHT22;1879;45.876;12.300;2022-12-08T13:02:51;14.60;51.90
3727;DHT22;1879;45.876;12.300;2022-12-08T13:05:20;14.60;53.30
3727;DHT22;1879;45.876;12.300;2022-12-08T13:07:51;14.50;52.70
3727;DHT22;1879;45.876;12.300;2022-12-08T13:10:21;14.20;52.80
3727;DHT22;1879;45.876;12.300;2022-12-08T13:13:05;14.10;53.20
3727;DHT22;1879;45.876;12.300;2022-12-08T13:15:36;14.20;52.80
3727;DHT22;1879;45.876;12.300;2022-12-08T13:18:04;14.70;53.00
3727;DHT22;1879;45.876;12.300;2022-12-08T13:20:40;14.60;52.30
3727;DHT22;1879;45.876;12.300;2022-12-08T13:23:25;14.40;52.20
3727;DHT22;1879;45.876;12.300;2022-12-08T13:26:11;14.00;52.70
3727;DHT22;1879;45.876;12.300;2022-12-08T13:29:14;13.70;53.20
3727;DHT22;1879;45.876;12.300;2022-12-08T13:31:43;13.40;54.60
3727;DHT22;1879;45.876;12.300;2022-12-08T13:34:15;13.10;55.00
3727;DHT22;1879;45.876;12.300;2022-12-08T13:36:49;12.70;56.00
3727;DHT22;1879;45.876;12.300;2022-12-08T13:39:22;12.50;56.90
3727;DHT22;1879;45.876;12.300;2022-12-08T13:41:56;12.40;57.60
3727;DHT22;1879;45.876;12.300;2022-12-08T13:44:29;12.10;57.70
3727;DHT22;1879;45.876;12.300;2022-12-08T13:46:58;12.00;58.00
3727;DHT22;1879;45.876;12.300;2022-12-08T13:49:29;12.00;58.60
3727;DHT22;1879;45.876;12.300;2022-12-08T13:51:59;12.60;59.00
3727;DHT22;1879;45.876;12.300;2022-12-08T13:54:30;14.50;57.20
3727;DHT22;1879;45.876;12.300;2022-12-08T13:56:59;16.00;54.60
3727;DHT22;1879;45.876;12.300;2022-12-08T13:59:29;17.00;52.50
3727;DHT22;1879;45.876;12.300;2022-12-08T14:02:03;17.80;51.20
3727;DHT22;1879;45.876;12.300;2022-12-08T14:04:31;18.30;49.50
3727;DHT22;1879;45.876;12.300;2022-12-08T14:07:00;18.60;48.60
3727;DHT22;1879;45.876;12.300;2022-12-08T14:09:33;18.50;47.60
3727;DHT22;1879;45.876;12.300;2022-12-08T14:12:03;18.30;48.30
3727;DHT22;1879;45.876;12.300;2022-12-08T14:14:32;17.50;49.70
3727;DHT22;1879;45.876;12.300;2022-12-08T14:17:04;15.80;50.30
3727;DHT22;1879;45.876;12.300;2022-12-08T14:19:33;14.50;52.60
3727;DHT22;1879;45.876;12.300;2022-12-08T14:22:01;13.50;55.40
3727;DHT22;1879;45.876;12.300;2022-12-08T14:24:30;12.80;68.70
3727;DHT22;1879;45.876;12.300;2022-12-08T14:26:59;12.40;59.20
3727;DHT22;1879;45.876;12.300;2022-12-08T14:29:37;12.10;61.00
3727;DHT22;1879;45.876;12.300;2022-12-08T14:32:22;11.70;63.00
3727;DHT22;1879;45.876;12.300;2022-12-08T14:34:52;11.50;64.90
3727;DHT22;1879;45.876;12.300;2022-12-08T14:37:20;11.30;66.20
3727;DHT22;1879;45.876;12.300;2022-12-08T14:39:48;11.20;67.80
3727;DHT22;1879;45.876;12.300;2022-12-08T14:42:20;11.10;69.30
3727;DHT22;1879;45.876;12.300;2022-12-08T14:44:53;11.00;70.90
3727;DHT22;1879;45.876;12.300;2022-12-08T14:47:28;10.80;72.70
3727;DHT22;1879;45.876;12.300;2022-12-08T14:49:55;10.70;73.90
3727;DHT22;1879;45.876;12.300;2022-12-08T14:52:22;10.70;75.50
3727;DHT22;1879;45.876;12.300;2022-12-08T14:54:49;10.60;76.80
3727;DHT22;1879;45.876;12.300;2022-12-08T14:57:17;10.50;78.30
3727;DHT22;1879;45.876;12.300;2022-12-08T14:59:45;10.50;80.00
3727;DHT22;1879;45.876;12.300;2022-12-08T15:02:24;10.40;81.90
3727;DHT22;1879;45.876;12.300;2022-12-08T15:04:58;10.40;84.20
3727;DHT22;1879;45.876;12.300;2022-12-08T15:07:28;10.30;85.80
3727;DHT22;1879;45.876;12.300;2022-12-08T15:10:23;10.30;87.20
3727;DHT22;1879;45.876;12.300;2022-12-08T15:12:59;10.20;89.00
3727;DHT22;1879;45.876;12.300;2022-12-08T15:15:27;10.10;89.70
3727;DHT22;1879;45.876;12.300;2022-12-08T15:18:02;10.00;90.00
3727;DHT22;1879;45.876;12.300;2022-12-08T15:20:38;10.00;91.00
3727;DHT22;1879;45.876;12.300;2022-12-08T15:23:11;9.90;92.30
3727;DHT22;1879;45.876;12.300;2022-12-08T15:25:43;9.70;93.10
3727;DHT22;1879;45.876;12.300;2022-12-08T15:28:11;9.60;94.40
3727;DHT22;1879;45.876;12.300;2022-12-08T15:30:38;9.40;96.00
3727;DHT22;1879;45.876;12.300;2022-12-08T15:33:07;9.30;96.90
3727;DHT22;1879;45.876;12.300;2022-12-08T15:35:34;9.10;97.60
3727;DHT22;1879;45.876;12.300;2022-12-08T15:38:01;9.00;98.00
3727;DHT22;1879;45.876;12.300;2022-12-08T15:40:28;9.00;97.80
3727;DHT22;1879;45.876;12.300;2022-12-08T15:42:55;9.00;98.50
3727;DHT22;1879;45.876;12.300;2022-12-08T15:45:25;9.00;98.60
3727;DHT22;1879;45.876;12.300;2022-12-08T15:47:53;8.90;99.00
3727;DHT22;1879;45.876;12.300;2022-12-08T15:50:22;8.90;99.40
3727;DHT22;1879;45.876;12.300;2022-12-08T15:52:50;8.80;99.50
3727;DHT22;1879;45.876;12.300;2022-12-08T15:55:18;8.80;99.90
3727;DHT22;1879;45.876;12.300;2022-12-08T15:57:48;8.70;99.90
3727;DHT22;1879;45.876;12.300;2022-12-08T16:00:26;8.70;99.90
3727;DHT22;1879;45.876;12.300;2022-12-08T16:02:55;8.70;99.90
3727;DHT22;1879;45.876;12.300;2022-12-08T16:05:24;8.60;99.90
3727;DHT22;1879;45.876;12.300;2022-12-08T16:07:52;8.60;99.90
3727;DHT22;1879;45.876;12.300;2022-12-08T16:10:21;8.50;99.90
3727;DHT22;1879;45.876;12.300;2022-12-08T16:12:49;8.40;99.90
3727;DHT22;1879;45.876;12.300;2022-12-08T16:15:35;8.30;99.90
3727;DHT22;1879;45.876;12.300;2022-12-08T16:18:03;8.30;99.90
3727;DHT22;1879;45.876;12.300;2022-12-08T16:20:31;8.30;99.90
3727;DHT22;1879;45.876;12.300;2022-12-08T16:22:58;8.30;99.90
3727;DHT22;1879;45.876;12.300;2022-12-08T16:25:25;8.30;99.90
3727;DHT22;1879;45.876;12.300;2022-12-08T16:27:54;8.20;99.90
3727;DHT22;1879;45.876;12.300;2022-12-08T16:30:21;8.10;99.90
3727;DHT22;1879;45.876;12.300;2022-12-08T16:32:49;8.00;99.90
3727;DHT22;1879;45.876;12.300;2022-12-08T16:35:16;7.90;99.90
3727;DHT22;1879;45.876;12.300;2022-12-08T16:37:44;7.80;99.90